sensor_id;sensor_type;location;lat;lon;timestamp;temperature;humidity
34640;DHT22;22600;48.186;11.526;2023-03-14T00:00:52;22.70;51.50
34640;DHT22;22600;48.186;11.526;2023-03-14T00:03:18;22.70;51.60
34640;DHT22;22600;48.186;11.526;2023-03-14T00:05:43;24.50;52.50
34640;DHT22;22600;48.186;11.526;2023-03-14T00:08:09;22.70;51.70
34640;DHT22;22600;48.186;11.526;2023-03-14T00:10:35;22.70;51.70
34640;DHT22;22600;48.186;11.526;2023-03-14T00:13:01;22.70;51.70
34640;DHT22;22600;48.186;11.526;2023-03-14T00:15:26;22.70;51.70
34640;DHT22;22600;48.186;11.526;2023-03-14T00:17:52;22.70;51.70
34640;DHT22;22600;48.186;11.526;2023-03-14T00:20:17;22.70;51.70
34640;DHT22;22600;48.186;11.526;2023-03-14T00:22:43;22.80;51.70
34640;DHT22;22600;48.186;11.526;2023-03-14T00:25:09;22.90;51.80
34640;DHT22;22600;48.186;11.526;2023-03-14T00:27:35;22.70;51.70
34640;DHT22;22600;48.186;11.526;2023-03-14T00:30:01;22.80;51.70
34640;DHT22;22600;48.186;11.526;2023-03-14T00:32:27;22.70;51.70
34640;DHT22;22600;48.186;11.526;2023-03-14T00:34:52;22.70;51.70
34640;DHT22;22600;48.186;11.526;2023-03-14T00:37:18;22.70;51.70
34640;DHT22;22600;48.186;11.526;2023-03-14T00:39:43;22.80;51.70
34640;DHT22;22600;48.186;11.526;2023-03-14T00:42:09;22.70;51.70
34640;DHT22;22600;48.186;11.526;2023-03-14T00:44:34;22.70;51.70
34640;DHT22;22600;48.186;11.526;2023-03-14T00:47:00;22.70;51.70
34640;DHT22;22600;48.186;11.526;2023-03-14T00:49:25;22.70;51.70
34640;DHT22;22600;48.186;11.526;2023-03-14T00:51:51;22.80;51.80
34640;DHT22;22600;48.186;11.526;2023-03-14T00:54:17;22.70;51.80
34640;DHT22;22600;48.186;11.526;2023-03-14T00:56:42;23.30;52.00
34640;DHT22;22600;48.186;11.526;2023-03-14T00:59:08;22.70;51.80
34640;DHT22;22600;48.186;11.526;2023-03-14T01:01:33;22.70;51.80
34640;DHT22;22600;48.186;11.526;2023-03-14T01:03:59;22.80;51.90
34640;DHT22;22600;48.186;11.526;2023-03-14T01:06:25;22.70;51.80
34640;DHT22;22600;48.186;11.526;2023-03-14T01:08:52;22.60;51.80
34640;DHT22;22600;48.186;11.526;2023-03-14T01:11:19;22.70;51.80
34640;DHT22;22600;48.186;11.526;2023-03-14T01:13:45;22.70;51.80
34640;DHT22;22600;48.186;11.526;2023-03-14T01:16:11;22.70;51.90
34640;DHT22;22600;48.186;11.526;2023-03-14T01:18:37;22.70;51.90
34640;DHT22;22600;48.186;11.526;2023-03-14T01:21:03;22.70;51.90
34640;DHT22;22600;48.186;11.526;2023-03-14T01:23:29;25.20;53.10
34640;DHT22;22600;48.186;11.526;2023-03-14T01:25:55;22.70;51.90
34640;DHT22;22600;48.186;11.526;2023-03-14T01:28:20;22.70;51.90
34640;DHT22;22600;48.186;11.526;2023-03-14T01:30:46;22.70;51.90
34640;DHT22;22600;48.186;11.526;2023-03-14T01:33:11;22.70;52.00
34640;DHT22;22600;48.186;11.526;2023-03-14T01:35:38;22.70;52.00
34640;DHT22;22600;48.186;11.526;2023-03-14T01:38:03;22.60;51.90
34640;DHT22;22600;48.186;11.526;2023-03-14T01:40:29;22.70;52.00
34640;DHT22;22600;48.186;11.526;2023-03-14T01:42:55;22.70;52.00
34640;DHT22;22600;48.186;11.526;2023-03-14T01:48:05;22.70;52.00
34640;DHT22;22600;48.186;11.526;2023-03-14T01:50:31;22.70;52.00
34640;DHT22;22600;48.186;11.526;2023-03-14T01:52:56;22.70;52.00
34640;DHT22;22600;48.186;11.526;2023-03-14T01:55:23;22.70;52.10
34640;DHT22;22600;48.186;11.526;2023-03-14T01:57:51;22.70;52.10
34640;DHT22;22600;48.186;11.526;2023-03-14T02:00:19;22.70;52.00
34640;DHT22;22600;48.186;11.526;2023-03-14T02:02:49;22.70;52.00
34640;DHT22;22600;48.186;11.526;2023-03-14T02:05:20;22.70;52.00
34640;DHT22;22600;48.186;11.526;2023-03-14T02:07:51;22.70;52.00
34640;DHT22;22600;48.186;11.526;2023-03-14T02:10:18;22.70;52.10
34640;DHT22;22600;48.186;11.526;2023-03-14T02:12:45;22.70;52.10
34640;DHT22;22600;48.186;11.526;2023-03-14T02:15:11;22.60;52.10
34640;DHT22;22600;48.186;11.526;2023-03-14T02:17:36;22.90;52.20
34640;DHT22;22600;48.186;11.526;2023-03-14T02:22:35;22.70;52.10
34640;DHT22;22600;48.186;11.526;2023-03-14T02:25:06;22.70;52.10
34640;DHT22;22600;48.186;11.526;2023-03-14T02:27:33;22.70;52.10
34640;DHT22;22600;48.186;11.526;2023-03-14T02:30:07;22.70;52.10
34640;DHT22;22600;48.186;11.526;2023-03-14T02:32:34;22.70;52.10
34640;DHT22;22600;48.186;11.526;2023-03-14T02:35:02;22.70;52.10
34640;DHT22;22600;48.186;11.526;2023-03-14T02:37:33;22.70;52.10
34640;DHT22;22600;48.186;11.526;2023-03-14T02:40:00;23.10;52.30
34640;DHT22;22600;48.186;11.526;2023-03-14T02:42:25;22.70;52.10
34640;DHT22;22600;48.186;11.526;2023-03-14T02:44:55;22.70;52.10
34640;DHT22;22600;48.186;11.526;2023-03-14T02:47:26;22.70;52.20
34640;DHT22;22600;48.186;11.526;2023-03-14T02:49:53;22.70;52.20
34640;DHT22;22600;48.186;11.526;2023-03-14T02:52:21;22.60;52.10
34640;DHT22;22600;48.186;11.526;2023-03-14T02:54:46;22.70;52.20
34640;DHT22;22600;48.186;11.526;2023-03-14T02:57:12;23.20;52.40
34640;DHT22;22600;48.186;11.526;2023-03-14T02:59:37;22.70;52.20
34640;DHT22;22600;48.186;11.526;2023-03-14T03:02:03;22.70;52.30
34640;DHT22;22600;48.186;11.526;2023-03-14T03:04:28;22.70;52.20
34640;DHT22;22600;48.186;11.526;2023-03-14T03:06:54;22.70;52.20
34640;DHT22;22600;48.186;11.526;2023-03-14T03:09:19;22.70;52.20
34640;DHT22;22600;48.186;11.526;2023-03-14T03:11:45;22.70;52.20
34640;DHT22;22600;48.186;11.526;2023-03-14T03:14:10;20.70;51.30
34640;DHT22;22600;48.186;11.526;2023-03-14T03:16:35;22.70;52.20
34640;DHT22;22600;48.186;11.526;2023-03-14T03:19:01;22.60;52.20
34640;DHT22;22600;48.186;11.526;2023-03-14T03:21:26;22.70;52.30
34640;DHT22;22600;48.186;11.526;2023-03-14T03:23:52;22.70;52.20
34640;DHT22;22600;48.186;11.526;2023-03-14T03:26:17;22.70;52.30
34640;DHT22;22600;48.186;11.526;2023-03-14T03:28:43;22.70;52.30
34640;DHT22;22600;48.186;11.526;2023-03-14T03:31:10;22.70;52.30
34640;DHT22;22600;48.186;11.526;2023-03-14T03:33:36;22.70;52.30
34640;DHT22;22600;48.186;11.526;2023-03-14T03:36:02;22.70;52.30
34640;DHT22;22600;48.186;11.526;2023-03-14T03:38:27;22.70;52.30
34640;DHT22;22600;48.186;11.526;2023-03-14T03:40:53;22.90;52.40
34640;DHT22;22600;48.186;11.526;2023-03-14T03:43:18;22.70;52.30
34640;DHT22;22600;48.186;11.526;2023-03-14T03:45:43;22.70;52.30
34640;DHT22;22600;48.186;11.526;2023-03-14T03:48:09;23.30;52.60
34640;DHT22;22600;48.186;11.526;2023-03-14T03:50:34;22.70;52.30
34640;DHT22;22600;48.186;11.526;2023-03-14T03:53:00;24.00;53.00
34640;DHT22;22600;48.186;11.526;2023-03-14T03:55:26;22.70;52.30
34640;DHT22;22600;48.186;11.526;2023-03-14T03:57:53;22.60;52.30
34640;DHT22;22600;48.186;11.526;2023-03-14T04:00:18;22.70;52.40
34640;DHT22;22600;48.186;11.526;2023-03-14T04:02:44;25.00;53.50
34640;DHT22;22600;48.186;11.526;2023-03-14T04:05:09;24.70;53.40
34640;DHT22;22600;48.186;11.526;2023-03-14T04:07:35;22.70;52.40
34640;DHT22;22600;48.186;11.526;2023-03-14T04:10:00;22.70;52.40
34640;DHT22;22600;48.186;11.526;2023-03-14T04:12:26;22.70;52.40
34640;DHT22;22600;48.186;11.526;2023-03-14T04:14:51;22.60;52.30
34640;DHT22;22600;48.186;11.526;2023-03-14T04:17:16;22.70;52.40
34640;DHT22;22600;48.186;11.526;2023-03-14T04:19:42;22.70;52.40
34640;DHT22;22600;48.186;11.526;2023-03-14T04:22:08;22.70;52.40
34640;DHT22;22600;48.186;11.526;2023-03-14T04:24:34;22.70;52.40
34640;DHT22;22600;48.186;11.526;2023-03-14T04:26:59;22.70;52.50
34640;DHT22;22600;48.186;11.526;2023-03-14T04:29:25;22.70;52.40
34640;DHT22;22600;48.186;11.526;2023-03-14T04:31:50;22.70;52.60
34640;DHT22;22600;48.186;11.526;2023-03-14T04:34:16;22.70;52.70
34640;DHT22;22600;48.186;11.526;2023-03-14T04:36:41;22.70;52.60
34640;DHT22;22600;48.186;11.526;2023-03-14T04:39:07;24.10;53.30
34640;DHT22;22600;48.186;11.526;2023-03-14T04:41:33;22.70;52.60
34640;DHT22;22600;48.186;11.526;2023-03-14T04:43:58;22.70;52.60
34640;DHT22;22600;48.186;11.526;2023-03-14T04:46:24;22.70;52.70
34640;DHT22;22600;48.186;11.526;2023-03-14T04:48:49;22.70;52.70
34640;DHT22;22600;48.186;11.526;2023-03-14T04:51:15;22.70;52.60
34640;DHT22;22600;48.186;11.526;2023-03-14T04:53:40;22.70;52.70
34640;DHT22;22600;48.186;11.526;2023-03-14T04:56:06;24.30;53.40
34640;DHT22;22600;48.186;11.526;2023-03-14T04:58:32;22.70;52.60
34640;DHT22;22600;48.186;11.526;2023-03-14T05:01:01;22.70;52.70
34640;DHT22;22600;48.186;11.526;2023-03-14T05:03:26;22.80;52.70
34640;DHT22;22600;48.186;11.526;2023-03-14T05:05:52;22.70;52.70
34640;DHT22;22600;48.186;11.526;2023-03-14T05:08:17;22.70;52.60
34640;DHT22;22600;48.186;11.526;2023-03-14T05:10:43;22.70;52.70
34640;DHT22;22600;48.186;11.526;2023-03-14T05:13:08;26.40;54.60
34640;DHT22;22600;48.186;11.526;2023-03-14T05:15:34;22.70;52.70
34640;DHT22;22600;48.186;11.526;2023-03-14T05:17:59;22.70;52.70
34640;DHT22;22600;48.186;11.526;2023-03-14T05:20:25;22.70;52.70
34640;DHT22;22600;48.186;11.526;2023-03-14T05:22:51;22.70;52.70
34640;DHT22;22600;48.186;11.526;2023-03-14T05:25:16;22.70;52.70
34640;DHT22;22600;48.186;11.526;2023-03-14T05:27:42;22.60;52.70
34640;DHT22;22600;48.186;11.526;2023-03-14T05:30:08;25.60;54.10
34640;DHT22;22600;48.186;11.526;2023-03-14T05:32:34;22.70;52.70
34640;DHT22;22600;48.186;11.526;2023-03-14T05:34:59;22.60;52.60
34640;DHT22;22600;48.186;11.526;2023-03-14T05:37:25;22.60;52.60
34640;DHT22;22600;48.186;11.526;2023-03-14T05:39:51;22.70;52.70
34640;DHT22;22600;48.186;11.526;2023-03-14T05:42:16;22.70;52.70
34640;DHT22;22600;48.186;11.526;2023-03-14T05:44:42;22.70;52.70
34640;DHT22;22600;48.186;11.526;2023-03-14T05:47:07;22.60;52.60
34640;DHT22;22600;48.186;11.526;2023-03-14T05:49:32;22.60;52.70
34640;DHT22;22600;48.186;11.526;2023-03-14T05:51:58;22.60;52.70
34640;DHT22;22600;48.186;11.526;2023-03-14T05:54:23;22.60;52.70
34640;DHT22;22600;48.186;11.526;2023-03-14T05:56:49;22.70;52.70
34640;DHT22;22600;48.186;11.526;2023-03-14T05:59:14;22.70;52.70
34640;DHT22;22600;48.186;11.526;2023-03-14T06:01:40;22.70;52.70
34640;DHT22;22600;48.186;11.526;2023-03-14T06:04:05;22.60;52.70
34640;DHT22;22600;48.186;11.526;2023-03-14T06:06:31;22.70;52.80
34640;DHT22;22600;48.186;11.526;2023-03-14T06:08:56;22.70;52.70
34640;DHT22;22600;48.186;11.526;2023-03-14T06:11:22;22.60;52.70
34640;DHT22;22600;48.186;11.526;2023-03-14T06:13:47;22.60;52.70
34640;DHT22;22600;48.186;11.526;2023-03-14T06:16:12;22.60;52.70
34640;DHT22;22600;48.186;11.526;2023-03-14T06:18:39;22.60;52.70
34640;DHT22;22600;48.186;11.526;2023-03-14T06:21:05;22.60;52.70
34640;DHT22;22600;48.186;11.526;2023-03-14T06:23:30;22.60;52.70
34640;DHT22;22600;48.186;11.526;2023-03-14T06:25:57;22.60;52.70
34640;DHT22;22600;48.186;11.526;2023-03-14T06:28:22;22.70;52.80
34640;DHT22;22600;48.186;11.526;2023-03-14T06:30:48;24.50;54.30
34640;DHT22;22600;48.186;11.526;2023-03-14T06:33:13;22.70;52.80
34640;DHT22;22600;48.186;11.526;2023-03-14T06:35:38;22.70;52.80
34640;DHT22;22600;48.186;11.526;2023-03-14T06:38:04;22.60;52.80
34640;DHT22;22600;48.186;11.526;2023-03-14T06:40:30;22.60;52.80
34640;DHT22;22600;48.186;11.526;2023-03-14T06:42:55;22.70;52.60
34640;DHT22;22600;48.186;11.526;2023-03-14T06:45:21;22.70;52.30
34640;DHT22;22600;48.186;11.526;2023-03-14T06:47:46;22.50;51.90
34640;DHT22;22600;48.186;11.526;2023-03-14T06:50:11;22.60;51.90
34640;DHT22;22600;48.186;11.526;2023-03-14T06:52:37;22.60;52.00
34640;DHT22;22600;48.186;11.526;2023-03-14T06:55:06;22.60;52.00
34640;DHT22;22600;48.186;11.526;2023-03-14T06:57:32;22.60;52.00
34640;DHT22;22600;48.186;11.526;2023-03-14T06:59:57;22.60;52.10
34640;DHT22;22600;48.186;11.526;2023-03-14T07:02:23;22.60;52.00
34640;DHT22;22600;48.186;11.526;2023-03-14T07:04:48;22.60;52.10
34640;DHT22;22600;48.186;11.526;2023-03-14T07:07:14;22.60;52.10
34640;DHT22;22600;48.186;11.526;2023-03-14T07:09:39;22.60;52.10
34640;DHT22;22600;48.186;11.526;2023-03-14T07:12:05;22.60;52.10
34640;DHT22;22600;48.186;11.526;2023-03-14T07:14:30;22.40;52.10
34640;DHT22;22600;48.186;11.526;2023-03-14T07:16:56;22.60;52.30
34640;DHT22;22600;48.186;11.526;2023-03-14T07:19:21;22.60;52.20
34640;DHT22;22600;48.186;11.526;2023-03-14T07:21:47;22.60;52.30
34640;DHT22;22600;48.186;11.526;2023-03-14T07:24:12;22.60;52.30
34640;DHT22;22600;48.186;11.526;2023-03-14T07:26:38;22.60;52.30
34640;DHT22;22600;48.186;11.526;2023-03-14T07:29:03;22.60;52.30
34640;DHT22;22600;48.186;11.526;2023-03-14T07:31:29;22.60;52.30
34640;DHT22;22600;48.186;11.526;2023-03-14T07:33:54;22.60;52.40
34640;DHT22;22600;48.186;11.526;2023-03-14T07:36:20;22.60;52.30
34640;DHT22;22600;48.186;11.526;2023-03-14T07:38:45;22.60;52.30
34640;DHT22;22600;48.186;11.526;2023-03-14T07:41:11;22.60;52.30
34640;DHT22;22600;48.186;11.526;2023-03-14T07:43:36;22.60;52.30
34640;DHT22;22600;48.186;11.526;2023-03-14T07:46:02;22.60;52.40
34640;DHT22;22600;48.186;11.526;2023-03-14T07:48:28;22.60;52.40
34640;DHT22;22600;48.186;11.526;2023-03-14T07:50:54;22.70;52.40
34640;DHT22;22600;48.186;11.526;2023-03-14T07:53:20;22.60;52.40
34640;DHT22;22600;48.186;11.526;2023-03-14T07:55:45;22.60;52.40
34640;DHT22;22600;48.186;11.526;2023-03-14T07:58:11;22.60;52.40
34640;DHT22;22600;48.186;11.526;2023-03-14T08:00:37;22.60;52.40
34640;DHT22;22600;48.186;11.526;2023-03-14T08:03:02;22.60;52.50
34640;DHT22;22600;48.186;11.526;2023-03-14T08:05:27;22.60;52.50
34640;DHT22;22600;48.186;11.526;2023-03-14T08:07:53;22.60;52.50
34640;DHT22;22600;48.186;11.526;2023-03-14T08:10:18;22.60;52.50
34640;DHT22;22600;48.186;11.526;2023-03-14T08:12:50;22.60;52.50
34640;DHT22;22600;48.186;11.526;2023-03-14T08:15:16;22.60;52.50
34640;DHT22;22600;48.186;11.526;2023-03-14T08:17:41;22.60;52.50
34640;DHT22;22600;48.186;11.526;2023-03-14T08:20:07;22.60;52.50
34640;DHT22;22600;48.186;11.526;2023-03-14T08:22:35;22.60;52.50
34640;DHT22;22600;48.186;11.526;2023-03-14T08:25:00;22.60;52.50
34640;DHT22;22600;48.186;11.526;2023-03-14T08:27:26;22.60;52.50
34640;DHT22;22600;48.186;11.526;2023-03-14T08:29:51;22.60;52.50
34640;DHT22;22600;48.186;11.526;2023-03-14T08:32:16;22.60;52.50
34640;DHT22;22600;48.186;11.526;2023-03-14T08:34:42;22.70;52.60
34640;DHT22;22600;48.186;11.526;2023-03-14T08:37:07;24.10;53.30
34640;DHT22;22600;48.186;11.526;2023-03-14T08:39:33;22.60;52.50
34640;DHT22;22600;48.186;11.526;2023-03-14T08:41:58;22.60;52.50
34640;DHT22;22600;48.186;11.526;2023-03-14T08:44:24;22.60;52.50
34640;DHT22;22600;48.186;11.526;2023-03-14T08:46:49;22.60;52.50
34640;DHT22;22600;48.186;11.526;2023-03-14T08:49:15;22.60;52.50
34640;DHT22;22600;48.186;11.526;2023-03-14T08:51:40;22.70;52.60
34640;DHT22;22600;48.186;11.526;2023-03-14T08:54:06;22.60;52.50
34640;DHT22;22600;48.186;11.526;2023-03-14T08:56:31;22.70;52.60
34640;DHT22;22600;48.186;11.526;2023-03-14T08:58:56;22.60;52.50
34640;DHT22;22600;48.186;11.526;2023-03-14T09:01:22;22.60;52.50
34640;DHT22;22600;48.186;11.526;2023-03-14T09:03:50;22.60;52.60
34640;DHT22;22600;48.186;11.526;2023-03-14T09:06:16;22.60;52.50
34640;DHT22;22600;48.186;11.526;2023-03-14T09:08:43;22.60;52.60
34640;DHT22;22600;48.186;11.526;2023-03-14T09:11:08;22.60;52.60
34640;DHT22;22600;48.186;11.526;2023-03-14T09:13:34;22.60;52.60
34640;DHT22;22600;48.186;11.526;2023-03-14T09:16:00;22.60;52.60
34640;DHT22;22600;48.186;11.526;2023-03-14T09:18:26;22.60;52.60
34640;DHT22;22600;48.186;11.526;2023-03-14T09:20:51;22.60;52.50
34640;DHT22;22600;48.186;11.526;2023-03-14T09:23:17;22.60;52.60
34640;DHT22;22600;48.186;11.526;2023-03-14T09:25:42;22.60;52.60
34640;DHT22;22600;48.186;11.526;2023-03-14T09:28:08;22.60;52.60
34640;DHT22;22600;48.186;11.526;2023-03-14T09:30:33;22.60;52.60
34640;DHT22;22600;48.186;11.526;2023-03-14T09:32:59;18.90;50.80
34640;DHT22;22600;48.186;11.526;2023-03-14T09:35:24;22.60;52.60
34640;DHT22;22600;48.186;11.526;2023-03-14T09:37:50;22.60;52.60
34640;DHT22;22600;48.186;11.526;2023-03-14T09:40:16;22.60;52.60
34640;DHT22;22600;48.186;11.526;2023-03-14T09:42:42;22.60;52.60
34640;DHT22;22600;48.186;11.526;2023-03-14T09:45:12;22.60;52.60
34640;DHT22;22600;48.186;11.526;2023-03-14T09:47:39;22.60;52.60
34640;DHT22;22600;48.186;11.526;2023-03-14T09:50:09;22.60;52.60
34640;DHT22;22600;48.186;11.526;2023-03-14T09:52:37;22.60;52.60
34640;DHT22;22600;48.186;11.526;2023-03-14T09:55:05;22.60;52.60
34640;DHT22;22600;48.186;11.526;2023-03-14T09:57:32;22.60;52.60
34640;DHT22;22600;48.186;11.526;2023-03-14T10:00:04;22.70;52.70
34640;DHT22;22600;48.186;11.526;2023-03-14T10:02:39;22.60;52.60
34640;DHT22;22600;48.186;11.526;2023-03-14T10:05:12;22.60;52.60
34640;DHT22;22600;48.186;11.526;2023-03-14T10:07:38;22.60;52.60
34640;DHT22;22600;48.186;11.526;2023-03-14T10:10:15;20.60;51.60
34640;DHT22;22600;48.186;11.526;2023-03-14T10:12:44;22.60;52.60
34640;DHT22;22600;48.186;11.526;2023-03-14T10:15:11;22.60;52.60
34640;DHT22;22600;48.186;11.526;2023-03-14T10:20:05;22.60;52.60
34640;DHT22;22600;48.186;11.526;2023-03-14T10:22:31;24.30;53.40
34640;DHT22;22600;48.186;11.526;2023-03-14T10:25:00;22.60;52.60
34640;DHT22;22600;48.186;11.526;2023-03-14T10:27:30;22.70;52.70
34640;DHT22;22600;48.186;11.526;2023-03-14T10:30:00;22.60;52.60
34640;DHT22;22600;48.186;11.526;2023-03-14T10:32:36;22.70;52.70
34640;DHT22;22600;48.186;11.526;2023-03-14T10:35:06;22.70;52.70
34640;DHT22;22600;48.186;11.526;2023-03-14T10:37:32;22.70;52.70
34640;DHT22;22600;48.186;11.526;2023-03-14T10:40:01;22.70;52.60
34640;DHT22;22600;48.186;11.526;2023-03-14T10:42:34;22.70;52.60
34640;DHT22;22600;48.186;11.526;2023-03-14T10:45:04;22.70;52.60
34640;DHT22;22600;48.186;11.526;2023-03-14T10:47:32;22.70;52.70
34640;DHT22;22600;48.186;11.526;2023-03-14T10:50:19;22.70;52.60
34640;DHT22;22600;48.186;11.526;2023-03-14T10:52:47;22.70;52.60
34640;DHT22;22600;48.186;11.526;2023-03-14T10:55:13;22.70;52.60
34640;DHT22;22600;48.186;11.526;2023-03-14T10:57:39;22.70;52.70
34640;DHT22;22600;48.186;11.526;2023-03-14T11:00:05;22.70;53.20
34640;DHT22;22600;48.186;11.526;2023-03-14T11:02:40;22.70;52.70
34640;DHT22;22600;48.186;11.526;2023-03-14T11:05:14;22.70;52.60
34640;DHT22;22600;48.186;11.526;2023-03-14T11:07:42;22.70;52.70
34640;DHT22;22600;48.186;11.526;2023-03-14T11:15:14;22.70;52.70
34640;DHT22;22600;48.186;11.526;2023-03-14T11:22:39;22.70;52.70
34640;DHT22;22600;48.186;11.526;2023-03-14T11:32:52;22.70;52.70
34640;DHT22;22600;48.186;11.526;2023-03-14T11:37:47;22.70;52.70
34640;DHT22;22600;48.186;11.526;2023-03-14T11:42:43;22.70;52.70
34640;DHT22;22600;48.186;11.526;2023-03-14T11:45:14;22.70;52.60
34640;DHT22;22600;48.186;11.526;2023-03-14T11:47:41;22.70;52.60
34640;DHT22;22600;48.186;11.526;2023-03-14T11:53:04;22.70;52.60
34640;DHT22;22600;48.186;11.526;2023-03-14T11:55:31;22.70;52.60
34640;DHT22;22600;48.186;11.526;2023-03-14T11:58:20;22.70;52.60
34640;DHT22;22600;48.186;11.526;2023-03-14T12:00:43;22.70;52.70
34640;DHT22;22600;48.186;11.526;2023-03-14T12:03:29;22.70;52.70
34640;DHT22;22600;48.186;11.526;2023-03-14T12:05:59;22.70;52.70
34640;DHT22;22600;48.186;11.526;2023-03-14T12:08:44;22.70;52.70
34640;DHT22;22600;48.186;11.526;2023-03-14T12:11:30;22.70;52.70
34640;DHT22;22600;48.186;11.526;2023-03-14T12:13:57;22.70;52.70
34640;DHT22;22600;48.186;11.526;2023-03-14T12:18:48;22.70;52.70
34640;DHT22;22600;48.186;11.526;2023-03-14T12:21:14;22.70;52.70
34640;DHT22;22600;48.186;11.526;2023-03-14T12:23:43;22.70;52.70
34640;DHT22;22600;48.186;11.526;2023-03-14T12:28:38;22.70;52.70
34640;DHT22;22600;48.186;11.526;2023-03-14T12:33:48;22.70;52.70
34640;DHT22;22600;48.186;11.526;2023-03-14T12:39:25;22.70;52.70
34640;DHT22;22600;48.186;11.526;2023-03-14T12:49:52;22.70;52.70
34640;DHT22;22600;48.186;11.526;2023-03-14T12:55:06;22.70;52.70
34640;DHT22;22600;48.186;11.526;2023-03-14T13:00:16;22.70;52.70
34640;DHT22;22600;48.186;11.526;2023-03-14T13:02:42;22.70;52.80
34640;DHT22;22600;48.186;11.526;2023-03-14T13:05:12;22.70;52.70
34640;DHT22;22600;48.186;11.526;2023-03-14T13:12:51;22.70;52.70
34640;DHT22;22600;48.186;11.526;2023-03-14T13:15:17;22.80;52.80
34640;DHT22;22600;48.186;11.526;2023-03-14T13:17:43;22.70;52.70
34640;DHT22;22600;48.186;11.526;2023-03-14T13:20:11;22.80;52.80
34640;DHT22;22600;48.186;11.526;2023-03-14T13:22:38;22.70;52.80
34640;DHT22;22600;48.186;11.526;2023-03-14T13:25:05;22.70;52.80
34640;DHT22;22600;48.186;11.526;2023-03-14T13:27:32;22.70;52.80
34640;DHT22;22600;48.186;11.526;2023-03-14T13:29:58;22.70;52.80
34640;DHT22;22600;48.186;11.526;2023-03-14T13:32:27;22.70;52.80
34640;DHT22;22600;48.186;11.526;2023-03-14T13:34:56;22.70;52.80
34640;DHT22;22600;48.186;11.526;2023-03-14T13:37:23;22.70;52.80
34640;DHT22;22600;48.186;11.526;2023-03-14T13:39:50;22.70;52.80
34640;DHT22;22600;48.186;11.526;2023-03-14T13:42:15;22.70;52.80
34640;DHT22;22600;48.186;11.526;2023-03-14T13:44:42;22.70;52.80
34640;DHT22;22600;48.186;11.526;2023-03-14T13:47:17;22.70;52.80
34640;DHT22;22600;48.186;11.526;2023-03-14T13:49:43;22.70;52.80
34640;DHT22;22600;48.186;11.526;2023-03-14T13:52:28;22.70;52.80
34640;DHT22;22600;48.186;11.526;2023-03-14T13:54:59;22.70;52.80
34640;DHT22;22600;48.186;11.526;2023-03-14T13:57:24;22.70;52.80
34640;DHT22;22600;48.186;11.526;2023-03-14T14:00:06;22.70;52.80
34640;DHT22;22600;48.186;11.526;2023-03-14T14:02:35;22.70;52.80
34640;DHT22;22600;48.186;11.526;2023-03-14T14:05:01;22.70;52.80
34640;DHT22;22600;48.186;11.526;2023-03-14T14:07:27;22.70;52.80
34640;DHT22;22600;48.186;11.526;2023-03-14T14:09:53;22.70;52.80
34640;DHT22;22600;48.186;11.526;2023-03-14T14:12:26;22.70;52.80
34640;DHT22;22600;48.186;11.526;2023-03-14T14:14:58;22.70;52.80
34640;DHT22;22600;48.186;11.526;2023-03-14T14:17:35;22.70;52.80
34640;DHT22;22600;48.186;11.526;2023-03-14T14:20:01;22.70;52.80
34640;DHT22;22600;48.186;11.526;2023-03-14T14:22:29;22.80;52.90
34640;DHT22;22600;48.186;11.526;2023-03-14T14:24:55;22.70;52.90
34640;DHT22;22600;48.186;11.526;2023-03-14T14:27:27;22.60;52.90
34640;DHT22;22600;48.186;11.526;2023-03-14T14:30:02;22.70;53.00
34640;DHT22;22600;48.186;11.526;2023-03-14T14:32:34;22.70;53.00
34640;DHT22;22600;48.186;11.526;2023-03-14T14:35:00;22.70;53.10
34640;DHT22;22600;48.186;11.526;2023-03-14T14:37:27;22.70;53.20
34640;DHT22;22600;48.186;11.526;2023-03-14T14:39:57;22.70;53.30
34640;DHT22;22600;48.186;11.526;2023-03-14T14:42:27;22.70;53.30
34640;DHT22;22600;48.186;11.526;2023-03-14T14:44:55;22.70;53.30
34640;DHT22;22600;48.186;11.526;2023-03-14T14:47:22;22.70;53.30
34640;DHT22;22600;48.186;11.526;2023-03-14T14:49:48;22.70;53.50
34640;DHT22;22600;48.186;11.526;2023-03-14T14:52:18;22.70;53.60
34640;DHT22;22600;48.186;11.526;2023-03-14T14:54:44;22.70;53.80
34640;DHT22;22600;48.186;11.526;2023-03-14T14:57:28;22.70;53.70
34640;DHT22;22600;48.186;11.526;2023-03-14T14:59:56;22.70;53.70
34640;DHT22;22600;48.186;11.526;2023-03-14T15:04:50;22.70;53.60
34640;DHT22;22600;48.186;11.526;2023-03-14T15:07:15;22.80;53.70
34640;DHT22;22600;48.186;11.526;2023-03-14T15:09:42;22.70;53.70
34640;DHT22;22600;48.186;11.526;2023-03-14T15:12:07;22.70;53.60
34640;DHT22;22600;48.186;11.526;2023-03-14T15:14:33;21.90;53.20
34640;DHT22;22600;48.186;11.526;2023-03-14T15:16:58;24.80;55.20
34640;DHT22;22600;48.186;11.526;2023-03-14T15:19:24;22.70;53.60
34640;DHT22;22600;48.186;11.526;2023-03-14T15:21:51;22.70;53.60
34640;DHT22;22600;48.186;11.526;2023-03-14T15:24:17;22.70;53.60
34640;DHT22;22600;48.186;11.526;2023-03-14T15:26:42;22.80;53.60
34640;DHT22;22600;48.186;11.526;2023-03-14T15:29:10;22.70;53.60
34640;DHT22;22600;48.186;11.526;2023-03-14T15:31:37;22.70;53.60
34640;DHT22;22600;48.186;11.526;2023-03-14T15:34:03;22.70;53.60
34640;DHT22;22600;48.186;11.526;2023-03-14T15:36:30;22.70;53.60
34640;DHT22;22600;48.186;11.526;2023-03-14T15:38:59;22.70;53.60
34640;DHT22;22600;48.186;11.526;2023-03-14T15:41:25;22.70;53.60
34640;DHT22;22600;48.186;11.526;2023-03-14T15:43:51;22.80;53.60
34640;DHT22;22600;48.186;11.526;2023-03-14T15:46:17;22.70;53.60
34640;DHT22;22600;48.186;11.526;2023-03-14T15:48:43;22.70;53.60
34640;DHT22;22600;48.186;11.526;2023-03-14T15:51:09;22.80;53.60
34640;DHT22;22600;48.186;11.526;2023-03-14T15:53:35;22.70;53.50
34640;DHT22;22600;48.186;11.526;2023-03-14T15:56:07;22.70;53.50
34640;DHT22;22600;48.186;11.526;2023-03-14T15:58:35;22.70;53.50
34640;DHT22;22600;48.186;11.526;2023-03-14T16:01:01;22.70;53.50
34640;DHT22;22600;48.186;11.526;2023-03-14T16:03:27;22.70;53.40
34640;DHT22;22600;48.186;11.526;2023-03-14T16:05:53;22.90;53.40
34640;DHT22;22600;48.186;11.526;2023-03-14T16:08:18;26.40;55.20
34640;DHT22;22600;48.186;11.526;2023-03-14T16:10:44;22.70;53.20
34640;DHT22;22600;48.186;11.526;2023-03-14T16:13:10;22.70;53.10
34640;DHT22;22600;48.186;11.526;2023-03-14T16:15:36;22.70;53.00
34640;DHT22;22600;48.186;11.526;2023-03-14T16:18:01;22.70;53.50